sensor_id;sensor_type;location;lat;lon;timestamp;P1;durP1;ratioP1;P2;durP2;ratioP2
16804;SDS011;8520;50.102;20.010;2022-10-16T00:01:18;15.88;;;14.57;;
16804;SDS011;8520;50.102;20.010;2022-10-16T00:03:48;15.63;;;14.43;;
16804;SDS011;8520;50.102;20.010;2022-10-16T00:06:18;15.75;;;14.43;;
16804;SDS011;8520;50.102;20.010;2022-10-16T00:08:47;17.10;;;15.60;;
16804;SDS011;8520;50.102;20.010;2022-10-16T00:11:18;16.42;;;14.98;;
16804;SDS011;8520;50.102;20.010;2022-10-16T00:13:48;16.58;;;15.27;;
16804;SDS011;8520;50.102;20.010;2022-10-16T00:16:19;17.92;;;16.17;;
16804;SDS011;8520;50.102;20.010;2022-10-16T00:18:47;17.40;;;16.05;;
16804;SDS011;8520;50.102;20.010;2022-10-16T00:21:18;25.23;;;23.02;;
16804;SDS011;8520;50.102;20.010;2022-10-16T00:23:49;26.65;;;24.20;;
16804;SDS011;8520;50.102;20.010;2022-10-16T00:26:19;26.88;;;24.58;;
16804;SDS011;8520;50.102;20.010;2022-10-16T00:28:48;20.20;;;18.52;;
16804;SDS011;8520;50.102;20.010;2022-10-16T00:31:17;23.70;;;21.70;;
16804;SDS011;8520;50.102;20.010;2022-10-16T00:33:46;26.63;;;24.15;;
16804;SDS011;8520;50.102;20.010;2022-10-16T00:36:15;33.33;;;30.33;;
16804;SDS011;8520;50.102;20.010;2022-10-16T00:38:45;31.63;;;28.73;;
16804;SDS011;8520;50.102;20.010;2022-10-16T00:41:15;28.05;;;25.40;;
16804;SDS011;8520;50.102;20.010;2022-10-16T00:43:45;27.40;;;24.90;;
16804;SDS011;8520;50.102;20.010;2022-10-16T00:46:15;26.10;;;23.83;;
16804;SDS011;8520;50.102;20.010;2022-10-16T00:48:49;29.90;;;27.13;;
16804;SDS011;8520;50.102;20.010;2022-10-16T00:51:21;26.45;;;24.15;;
16804;SDS011;8520;50.102;20.010;2022-10-16T00:53:53;31.27;;;28.57;;
16804;SDS011;8520;50.102;20.010;2022-10-16T00:56:23;35.97;;;32.43;;
16804;SDS011;8520;50.102;20.010;2022-10-16T00:58:52;32.53;;;29.53;;
16804;SDS011;8520;50.102;20.010;2022-10-16T01:01:20;28.87;;;26.10;;
16804;SDS011;8520;50.102;20.010;2022-10-16T01:03:48;32.67;;;29.17;;
16804;SDS011;8520;50.102;20.010;2022-10-16T01:06:19;28.35;;;25.95;;
16804;SDS011;8520;50.102;20.010;2022-10-16T01:09:06;25.70;;;23.30;;
16804;SDS011;8520;50.102;20.010;2022-10-16T01:11:45;33.93;;;30.80;;
16804;SDS011;8520;50.102;20.010;2022-10-16T01:14:22;31.93;;;28.80;;
16804;SDS011;8520;50.102;20.010;2022-10-16T01:17:00;35.13;;;31.60;;
16804;SDS011;8520;50.102;20.010;2022-10-16T01:19:36;35.77;;;32.07;;
16804;SDS011;8520;50.102;20.010;2022-10-16T01:22:16;31.27;;;28.33;;
16804;SDS011;8520;50.102;20.010;2022-10-16T01:24:48;27.00;;;24.43;;
16804;SDS011;8520;50.102;20.010;2022-10-16T01:27:19;24.77;;;22.77;;
16804;SDS011;8520;50.102;20.010;2022-10-16T01:29:52;26.27;;;23.87;;
16804;SDS011;8520;50.102;20.010;2022-10-16T01:32:27;22.00;;;20.27;;
16804;SDS011;8520;50.102;20.010;2022-10-16T01:35:02;24.53;;;22.47;;
16804;SDS011;8520;50.102;20.010;2022-10-16T01:37:35;25.87;;;23.67;;
16804;SDS011;8520;50.102;20.010;2022-10-16T01:40:07;22.57;;;20.50;;
16804;SDS011;8520;50.102;20.010;2022-10-16T01:42:41;19.83;;;18.13;;
16804;SDS011;8520;50.102;20.010;2022-10-16T01:45:12;24.23;;;21.80;;
16804;SDS011;8520;50.102;20.010;2022-10-16T01:47:44;23.60;;;21.53;;
16804;SDS011;8520;50.102;20.010;2022-10-16T01:50:14;26.00;;;23.30;;
16804;SDS011;8520;50.102;20.010;2022-10-16T01:52:46;25.83;;;23.33;;
16804;SDS011;8520;50.102;20.010;2022-10-16T01:55:17;24.20;;;22.00;;
16804;SDS011;8520;50.102;20.010;2022-10-16T01:57:51;26.20;;;23.63;;
16804;SDS011;8520;50.102;20.010;2022-10-16T02:00:21;25.43;;;23.10;;
16804;SDS011;8520;50.102;20.010;2022-10-16T02:02:51;29.70;;;26.97;;
16804;SDS011;8520;50.102;20.010;2022-10-16T02:05:22;29.37;;;26.57;;
16804;SDS011;8520;50.102;20.010;2022-10-16T02:07:53;27.50;;;24.90;;
16804;SDS011;8520;50.102;20.010;2022-10-16T02:10:25;29.60;;;26.90;;
16804;SDS011;8520;50.102;20.010;2022-10-16T02:13:00;27.30;;;24.70;;
16804;SDS011;8520;50.102;20.010;2022-10-16T02:15:32;27.03;;;24.57;;
16804;SDS011;8520;50.102;20.010;2022-10-16T02:18:01;27.60;;;24.77;;
16804;SDS011;8520;50.102;20.010;2022-10-16T02:20:31;26.37;;;23.80;;
16804;SDS011;8520;50.102;20.010;2022-10-16T02:23:02;26.00;;;23.37;;
16804;SDS011;8520;50.102;20.010;2022-10-16T02:25:31;26.27;;;23.90;;
16804;SDS011;8520;50.102;20.010;2022-10-16T02:28:05;30.80;;;25.57;;
16804;SDS011;8520;50.102;20.010;2022-10-16T02:30:39;25.97;;;23.43;;
16804;SDS011;8520;50.102;20.010;2022-10-16T02:33:11;26.27;;;23.53;;
16804;SDS011;8520;50.102;20.010;2022-10-16T02:35:41;27.63;;;24.13;;
16804;SDS011;8520;50.102;20.010;2022-10-16T02:38:12;25.93;;;23.60;;
16804;SDS011;8520;50.102;20.010;2022-10-16T02:40:41;26.10;;;23.70;;
16804;SDS011;8520;50.102;20.010;2022-10-16T02:43:11;26.60;;;23.90;;
16804;SDS011;8520;50.102;20.010;2022-10-16T02:45:40;26.47;;;24.03;;
16804;SDS011;8520;50.102;20.010;2022-10-16T02:48:08;26.20;;;23.73;;
16804;SDS011;8520;50.102;20.010;2022-10-16T02:50:36;26.17;;;23.67;;
16804;SDS011;8520;50.102;20.010;2022-10-16T02:53:04;27.23;;;24.50;;
16804;SDS011;8520;50.102;20.010;2022-10-16T02:55:32;26.97;;;24.37;;
16804;SDS011;8520;50.102;20.010;2022-10-16T02:58:00;27.33;;;24.73;;
16804;SDS011;8520;50.102;20.010;2022-10-16T03:00:30;29.90;;;26.93;;
16804;SDS011;8520;50.102;20.010;2022-10-16T03:02:58;28.53;;;26.07;;
16804;SDS011;8520;50.102;20.010;2022-10-16T03:05:26;32.27;;;28.30;;
16804;SDS011;8520;50.102;20.010;2022-10-16T03:07:54;28.23;;;25.83;;
16804;SDS011;8520;50.102;20.010;2022-10-16T03:10:22;27.53;;;24.93;;
16804;SDS011;8520;50.102;20.010;2022-10-16T03:12:50;26.03;;;23.90;;
16804;SDS011;8520;50.102;20.010;2022-10-16T03:15:18;27.73;;;25.00;;
16804;SDS011;8520;50.102;20.010;2022-10-16T03:17:48;28.20;;;25.50;;
16804;SDS011;8520;50.102;20.010;2022-10-16T03:20:15;28.00;;;25.30;;
16804;SDS011;8520;50.102;20.010;2022-10-16T03:22:43;28.07;;;25.50;;
16804;SDS011;8520;50.102;20.010;2022-10-16T03:25:12;27.17;;;24.70;;
16804;SDS011;8520;50.102;20.010;2022-10-16T03:27:40;26.77;;;24.60;;
16804;SDS011;8520;50.102;20.010;2022-10-16T03:30:08;27.70;;;25.37;;
16804;SDS011;8520;50.102;20.010;2022-10-16T03:32:37;24.57;;;22.37;;
16804;SDS011;8520;50.102;20.010;2022-10-16T03:35:07;24.07;;;22.07;;
16804;SDS011;8520;50.102;20.010;2022-10-16T03:37:35;21.50;;;19.80;;
16804;SDS011;8520;50.102;20.010;2022-10-16T03:40:03;21.73;;;19.83;;
16804;SDS011;8520;50.102;20.010;2022-10-16T03:42:32;23.53;;;21.37;;
16804;SDS011;8520;50.102;20.010;2022-10-16T03:45:00;21.80;;;19.87;;
16804;SDS011;8520;50.102;20.010;2022-10-16T03:47:28;24.03;;;21.93;;
16804;SDS011;8520;50.102;20.010;2022-10-16T03:49:56;25.23;;;23.17;;
16804;SDS011;8520;50.102;20.010;2022-10-16T03:52:25;22.33;;;20.50;;
16804;SDS011;8520;50.102;20.010;2022-10-16T03:54:53;19.40;;;18.10;;
16804;SDS011;8520;50.102;20.010;2022-10-16T03:57:22;19.43;;;18.00;;
16804;SDS011;8520;50.102;20.010;2022-10-16T03:59:50;19.97;;;18.47;;
16804;SDS011;8520;50.102;20.010;2022-10-16T04:02:18;21.23;;;19.23;;
16804;SDS011;8520;50.102;20.010;2022-10-16T04:04:46;19.97;;;18.37;;
16804;SDS011;8520;50.102;20.010;2022-10-16T04:07:14;19.67;;;18.10;;
16804;SDS011;8520;50.102;20.010;2022-10-16T04:09:44;19.00;;;17.70;;
16804;SDS011;8520;50.102;20.010;2022-10-16T04:12:12;19.67;;;18.17;;
16804;SDS011;8520;50.102;20.010;2022-10-16T04:14:40;16.10;;;14.90;;
16804;SDS011;8520;50.102;20.010;2022-10-16T04:17:08;17.73;;;16.23;;
16804;SDS011;8520;50.102;20.010;2022-10-16T04:19:36;17.07;;;15.80;;
16804;SDS011;8520;50.102;20.010;2022-10-16T04:22:04;18.80;;;17.23;;
16804;SDS011;8520;50.102;20.010;2022-10-16T04:24:32;18.60;;;17.30;;
16804;SDS011;8520;50.102;20.010;2022-10-16T04:27:01;17.23;;;15.87;;
16804;SDS011;8520;50.102;20.010;2022-10-16T04:29:29;16.70;;;15.50;;
16804;SDS011;8520;50.102;20.010;2022-10-16T04:31:57;15.57;;;14.33;;
16804;SDS011;8520;50.102;20.010;2022-10-16T04:34:25;17.90;;;16.60;;
16804;SDS011;8520;50.102;20.010;2022-10-16T04:36:53;17.67;;;16.37;;
16804;SDS011;8520;50.102;20.010;2022-10-16T04:39:21;16.93;;;15.63;;
16804;SDS011;8520;50.102;20.010;2022-10-16T04:41:49;18.47;;;16.83;;
16804;SDS011;8520;50.102;20.010;2022-10-16T04:44:19;18.13;;;16.63;;
16804;SDS011;8520;50.102;20.010;2022-10-16T04:46:47;19.20;;;17.73;;
16804;SDS011;8520;50.102;20.010;2022-10-16T04:49:15;20.13;;;18.53;;
16804;SDS011;8520;50.102;20.010;2022-10-16T04:51:43;22.77;;;20.70;;
16804;SDS011;8520;50.102;20.010;2022-10-16T04:54:11;21.87;;;20.30;;
16804;SDS011;8520;50.102;20.010;2022-10-16T04:56:39;23.17;;;21.23;;
16804;SDS011;8520;50.102;20.010;2022-10-16T04:59:13;23.50;;;21.70;;
16804;SDS011;8520;50.102;20.010;2022-10-16T05:01:43;24.40;;;22.50;;
16804;SDS011;8520;50.102;20.010;2022-10-16T05:04:11;24.83;;;22.83;;
16804;SDS011;8520;50.102;20.010;2022-10-16T05:06:41;26.17;;;23.77;;
16804;SDS011;8520;50.102;20.010;2022-10-16T05:09:09;24.97;;;23.07;;
16804;SDS011;8520;50.102;20.010;2022-10-16T05:11:37;25.50;;;23.30;;
16804;SDS011;8520;50.102;20.010;2022-10-16T05:14:05;26.63;;;24.23;;
16804;SDS011;8520;50.102;20.010;2022-10-16T05:16:33;27.90;;;25.13;;
16804;SDS011;8520;50.102;20.010;2022-10-16T05:19:03;26.90;;;24.40;;
16804;SDS011;8520;50.102;20.010;2022-10-16T05:21:51;26.57;;;24.50;;
16804;SDS011;8520;50.102;20.010;2022-10-16T05:24:19;28.40;;;25.90;;
16804;SDS011;8520;50.102;20.010;2022-10-16T05:26:47;26.17;;;23.73;;
16804;SDS011;8520;50.102;20.010;2022-10-16T05:29:15;25.10;;;23.20;;
16804;SDS011;8520;50.102;20.010;2022-10-16T05:31:43;24.60;;;22.70;;
16804;SDS011;8520;50.102;20.010;2022-10-16T05:34:12;24.23;;;22.07;;
16804;SDS011;8520;50.102;20.010;2022-10-16T05:36:40;24.23;;;22.37;;
16804;SDS011;8520;50.102;20.010;2022-10-16T05:39:08;24.27;;;22.23;;
16804;SDS011;8520;50.102;20.010;2022-10-16T05:41:36;24.73;;;22.77;;
16804;SDS011;8520;50.102;20.010;2022-10-16T05:44:04;23.17;;;21.37;;
16804;SDS011;8520;50.102;20.010;2022-10-16T05:46:33;22.57;;;20.67;;
16804;SDS011;8520;50.102;20.010;2022-10-16T05:49:01;22.10;;;20.40;;
16804;SDS011;8520;50.102;20.010;2022-10-16T05:51:30;23.30;;;21.60;;
16804;SDS011;8520;50.102;20.010;2022-10-16T05:53:58;23.30;;;21.43;;
16804;SDS011;8520;50.102;20.010;2022-10-16T05:56:26;25.77;;;23.37;;
16804;SDS011;8520;50.102;20.010;2022-10-16T05:58:55;24.37;;;22.57;;
16804;SDS011;8520;50.102;20.010;2022-10-16T06:01:23;26.87;;;24.60;;
16804;SDS011;8520;50.102;20.010;2022-10-16T06:03:51;26.30;;;24.17;;
16804;SDS011;8520;50.102;20.010;2022-10-16T06:06:22;27.77;;;25.40;;
16804;SDS011;8520;50.102;20.010;2022-10-16T06:08:54;26.20;;;24.10;;
16804;SDS011;8520;50.102;20.010;2022-10-16T06:11:24;26.67;;;24.47;;
16804;SDS011;8520;50.102;20.010;2022-10-16T06:13:53;27.20;;;24.70;;
16804;SDS011;8520;50.102;20.010;2022-10-16T06:16:23;26.70;;;24.40;;
16804;SDS011;8520;50.102;20.010;2022-10-16T06:18:52;25.57;;;23.40;;
16804;SDS011;8520;50.102;20.010;2022-10-16T06:21:22;25.47;;;23.53;;
16804;SDS011;8520;50.102;20.010;2022-10-16T06:23:53;27.23;;;24.90;;
16804;SDS011;8520;50.102;20.010;2022-10-16T06:26:22;27.63;;;25.27;;
16804;SDS011;8520;50.102;20.010;2022-10-16T06:28:51;27.20;;;24.70;;
16804;SDS011;8520;50.102;20.010;2022-10-16T06:31:21;24.70;;;22.83;;
16804;SDS011;8520;50.102;20.010;2022-10-16T06:33:54;24.90;;;22.87;;
16804;SDS011;8520;50.102;20.010;2022-10-16T06:36:23;24.87;;;23.07;;
16804;SDS011;8520;50.102;20.010;2022-10-16T06:38:51;25.43;;;23.50;;
16804;SDS011;8520;50.102;20.010;2022-10-16T06:41:22;27.43;;;24.97;;
16804;SDS011;8520;50.102;20.010;2022-10-16T06:43:50;25.17;;;23.07;;
16804;SDS011;8520;50.102;20.010;2022-10-16T06:46:19;24.70;;;22.70;;
16804;SDS011;8520;50.102;20.010;2022-10-16T06:48:49;25.60;;;23.40;;
16804;SDS011;8520;50.102;20.010;2022-10-16T06:51:17;26.70;;;24.52;;
16804;SDS011;8520;50.102;20.010;2022-10-16T06:53:47;25.27;;;23.27;;
16804;SDS011;8520;50.102;20.010;2022-10-16T06:56:33;25.98;;;23.75;;
16804;SDS011;8520;50.102;20.010;2022-10-16T06:59:01;24.88;;;22.80;;
16804;SDS011;8520;50.102;20.010;2022-10-16T07:01:30;23.75;;;21.83;;
16804;SDS011;8520;50.102;20.010;2022-10-16T07:03:59;19.48;;;18.00;;
16804;SDS011;8520;50.102;20.010;2022-10-16T07:06:30;20.88;;;19.38;;
16804;SDS011;8520;50.102;20.010;2022-10-16T07:09:00;21.90;;;19.92;;
16804;SDS011;8520;50.102;20.010;2022-10-16T07:11:29;20.83;;;19.33;;
16804;SDS011;8520;50.102;20.010;2022-10-16T07:13:59;20.25;;;18.38;;
16804;SDS011;8520;50.102;20.010;2022-10-16T07:16:27;22.15;;;20.10;;
16804;SDS011;8520;50.102;20.010;2022-10-16T07:18:57;20.38;;;18.45;;
16804;SDS011;8520;50.102;20.010;2022-10-16T07:21:27;20.42;;;18.90;;
16804;SDS011;8520;50.102;20.010;2022-10-16T07:23:57;18.25;;;16.95;;
16804;SDS011;8520;50.102;20.010;2022-10-16T07:26:28;19.30;;;17.83;;
16804;SDS011;8520;50.102;20.010;2022-10-16T07:28:59;18.08;;;16.33;;
16804;SDS011;8520;50.102;20.010;2022-10-16T07:31:28;16.63;;;15.23;;
16804;SDS011;8520;50.102;20.010;2022-10-16T07:33:57;15.50;;;14.27;;
16804;SDS011;8520;50.102;20.010;2022-10-16T07:36:26;13.68;;;12.57;;
16804;SDS011;8520;50.102;20.010;2022-10-16T07:38:54;13.77;;;12.68;;
16804;SDS011;8520;50.102;20.010;2022-10-16T07:41:25;12.68;;;11.60;;
16804;SDS011;8520;50.102;20.010;2022-10-16T07:43:54;13.07;;;12.07;;
16804;SDS011;8520;50.102;20.010;2022-10-16T07:46:24;12.55;;;11.45;;
16804;SDS011;8520;50.102;20.010;2022-10-16T07:48:52;12.30;;;11.10;;
16804;SDS011;8520;50.102;20.010;2022-10-16T07:51:20;11.40;;;10.50;;
16804;SDS011;8520;50.102;20.010;2022-10-16T07:53:50;11.38;;;10.55;;
16804;SDS011;8520;50.102;20.010;2022-10-16T07:56:18;11.10;;;10.20;;
16804;SDS011;8520;50.102;20.010;2022-10-16T07:58:47;11.45;;;10.45;;
16804;SDS011;8520;50.102;20.010;2022-10-16T08:01:17;10.60;;;9.80;;
16804;SDS011;8520;50.102;20.010;2022-10-16T08:03:47;11.32;;;10.25;;
16804;SDS011;8520;50.102;20.010;2022-10-16T08:06:17;10.20;;;9.07;;
16804;SDS011;8520;50.102;20.010;2022-10-16T08:08:52;10.20;;;9.50;;
16804;SDS011;8520;50.102;20.010;2022-10-16T08:11:20;11.05;;;10.20;;
16804;SDS011;8520;50.102;20.010;2022-10-16T08:13:48;9.95;;;9.25;;
16804;SDS011;8520;50.102;20.010;2022-10-16T08:16:16;10.32;;;9.43;;
16804;SDS011;8520;50.102;20.010;2022-10-16T08:18:44;10.25;;;9.55;;
16804;SDS011;8520;50.102;20.010;2022-10-16T08:21:14;10.38;;;9.55;;
16804;SDS011;8520;50.102;20.010;2022-10-16T08:23:47;9.98;;;9.13;;
16804;SDS011;8520;50.102;20.010;2022-10-16T08:26:23;10.30;;;9.60;;
16804;SDS011;8520;50.102;20.010;2022-10-16T08:28:51;11.02;;;10.32;;
16804;SDS011;8520;50.102;20.010;2022-10-16T08:31:20;11.55;;;10.43;;
16804;SDS011;8520;50.102;20.010;2022-10-16T08:33:49;10.05;;;9.25;;
16804;SDS011;8520;50.102;20.010;2022-10-16T08:36:19;11.13;;;10.13;;
16804;SDS011;8520;50.102;20.010;2022-10-16T08:38:47;10.73;;;9.73;;
16804;SDS011;8520;50.102;20.010;2022-10-16T08:41:28;9.80;;;9.00;;
16804;SDS011;8520;50.102;20.010;2022-10-16T08:44:27;10.43;;;9.52;;
16804;SDS011;8520;50.102;20.010;2022-10-16T08:47:06;10.48;;;9.68;;
16804;SDS011;8520;50.102;20.010;2022-10-16T08:49:47;9.93;;;9.13;;
16804;SDS011;8520;50.102;20.010;2022-10-16T08:52:24;14.15;;;12.88;;
16804;SDS011;8520;50.102;20.010;2022-10-16T08:54:56;10.45;;;9.75;;
16804;SDS011;8520;50.102;20.010;2022-10-16T08:57:25;10.18;;;9.27;;
16804;SDS011;8520;50.102;20.010;2022-10-16T08:59:54;9.68;;;8.95;;
16804;SDS011;8520;50.102;20.010;2022-10-16T09:02:29;8.60;;;8.02;;
16804;SDS011;8520;50.102;20.010;2022-10-16T09:05:02;10.15;;;9.25;;
16804;SDS011;8520;50.102;20.010;2022-10-16T09:07:52;9.82;;;9.13;;
16804;SDS011;8520;50.102;20.010;2022-10-16T09:10:34;9.73;;;9.10;;
16804;SDS011;8520;50.102;20.010;2022-10-16T09:13:14;9.25;;;8.52;;
16804;SDS011;8520;50.102;20.010;2022-10-16T09:15:48;8.45;;;7.85;;
16804;SDS011;8520;50.102;20.010;2022-10-16T09:18:22;9.55;;;8.75;;
16804;SDS011;8520;50.102;20.010;2022-10-16T09:20:59;9.88;;;8.98;;
16804;SDS011;8520;50.102;20.010;2022-10-16T09:23:36;10.13;;;9.23;;
16804;SDS011;8520;50.102;20.010;2022-10-16T09:26:05;9.75;;;8.93;;
16804;SDS011;8520;50.102;20.010;2022-10-16T09:28:39;9.32;;;8.65;;
16804;SDS011;8520;50.102;20.010;2022-10-16T09:31:10;9.68;;;8.73;;
16804;SDS011;8520;50.102;20.010;2022-10-16T09:33:42;9.88;;;9.07;;
16804;SDS011;8520;50.102;20.010;2022-10-16T09:36:13;9.55;;;8.90;;
16804;SDS011;8520;50.102;20.010;2022-10-16T09:38:43;9.48;;;8.77;;
16804;SDS011;8520;50.102;20.010;2022-10-16T09:41:13;9.07;;;8.27;;
16804;SDS011;8520;50.102;20.010;2022-10-16T09:43:49;9.20;;;8.50;;
16804;SDS011;8520;50.102;20.010;2022-10-16T09:46:22;9.07;;;8.40;;
16804;SDS011;8520;50.102;20.010;2022-10-16T09:48:54;9.05;;;8.35;;
16804;SDS011;8520;50.102;20.010;2022-10-16T09:51:24;10.10;;;9.30;;
16804;SDS011;8520;50.102;20.010;2022-10-16T09:53:56;9.13;;;8.38;;
16804;SDS011;8520;50.102;20.010;2022-10-16T09:56:26;9.52;;;8.82;;
16804;SDS011;8520;50.102;20.010;2022-10-16T09:58:56;9.68;;;8.98;;
16804;SDS011;8520;50.102;20.010;2022-10-16T10:01:28;9.45;;;8.65;;
16804;SDS011;8520;50.102;20.010;2022-10-16T10:03:59;10.13;;;8.88;;
16804;SDS011;8520;50.102;20.010;2022-10-16T10:06:30;8.70;;;8.05;;
16804;SDS011;8520;50.102;20.010;2022-10-16T10:09:06;9.10;;;8.50;;
16804;SDS011;8520;50.102;20.010;2022-10-16T10:11:44;9.90;;;9.13;;
16804;SDS011;8520;50.102;20.010;2022-10-16T10:14:19;10.75;;;9.85;;
16804;SDS011;8520;50.102;20.010;2022-10-16T10:16:52;10.15;;;8.52;;
16804;SDS011;8520;50.102;20.010;2022-10-16T10:19:39;9.68;;;8.88;;
16804;SDS011;8520;50.102;20.010;2022-10-16T10:22:19;10.05;;;9.07;;
16804;SDS011;8520;50.102;20.010;2022-10-16T10:25:00;9.57;;;8.68;;
16804;SDS011;8520;50.102;20.010;2022-10-16T10:27:43;10.05;;;9.32;;
16804;SDS011;8520;50.102;20.010;2022-10-16T10:30:20;9.45;;;8.40;;
16804;SDS011;8520;50.102;20.010;2022-10-16T10:32:55;10.35;;;8.20;;
16804;SDS011;8520;50.102;20.010;2022-10-16T10:35:39;8.93;;;8.23;;
16804;SDS011;8520;50.102;20.010;2022-10-16T10:38:18;9.65;;;8.85;;
16804;SDS011;8520;50.102;20.010;2022-10-16T10:40:58;9.30;;;8.60;;
16804;SDS011;8520;50.102;20.010;2022-10-16T10:43:44;9.05;;;8.35;;
16804;SDS011;8520;50.102;20.010;2022-10-16T10:46:23;9.20;;;8.50;;
16804;SDS011;8520;50.102;20.010;2022-10-16T10:49:12;8.10;;;7.60;;
16804;SDS011;8520;50.102;20.010;2022-10-16T10:52:09;8.95;;;8.25;;
16804;SDS011;8520;50.102;20.010;2022-10-16T10:54:52;10.23;;;8.60;;
16804;SDS011;8520;50.102;20.010;2022-10-16T10:57:30;8.60;;;7.85;;
16804;SDS011;8520;50.102;20.010;2022-10-16T11:00:11;9.10;;;8.50;;
16804;SDS011;8520;50.102;20.010;2022-10-16T11:02:48;8.73;;;8.02;;
16804;SDS011;8520;50.102;20.010;2022-10-16T11:05:31;8.65;;;7.90;;
16804;SDS011;8520;50.102;20.010;2022-10-16T11:08:11;8.68;;;7.97;;
16804;SDS011;8520;50.102;20.010;2022-10-16T11:10:47;8.25;;;7.75;;
16804;SDS011;8520;50.102;20.010;2022-10-16T11:13:24;8.77;;;8.07;;
16804;SDS011;8520;50.102;20.010;2022-10-16T11:15:58;7.93;;;7.43;;
16804;SDS011;8520;50.102;20.010;2022-10-16T11:18:32;8.88;;;7.47;;
16804;SDS011;8520;50.102;20.010;2022-10-16T11:21:08;7.22;;;6.72;;
16804;SDS011;8520;50.102;20.010;2022-10-16T11:23:41;8.43;;;7.80;;
16804;SDS011;8520;50.102;20.010;2022-10-16T11:26:14;7.45;;;6.95;;
16804;SDS011;8520;50.102;20.010;2022-10-16T11:28:48;7.45;;;6.93;;
16804;SDS011;8520;50.102;20.010;2022-10-16T11:31:19;7.72;;;7.03;;
16804;SDS011;8520;50.102;20.010;2022-10-16T11:33:58;8.30;;;7.60;;
16804;SDS011;8520;50.102;20.010;2022-10-16T11:36:32;8.30;;;7.47;;
16804;SDS011;8520;50.102;20.010;2022-10-16T11:39:07;8.00;;;7.50;;
16804;SDS011;8520;50.102;20.010;2022-10-16T11:41:47;8.48;;;7.75;;
16804;SDS011;8520;50.102;20.010;2022-10-16T11:44:27;7.55;;;6.93;;
16804;SDS011;8520;50.102;20.010;2022-10-16T11:47:21;8.48;;;7.88;;
16804;SDS011;8520;50.102;20.010;2022-10-16T11:50:17;8.77;;;7.93;;
16804;SDS011;8520;50.102;20.010;2022-10-16T11:52:51;7.72;;;7.22;;
16804;SDS011;8520;50.102;20.010;2022-10-16T11:55:26;9.05;;;8.25;;
16804;SDS011;8520;50.102;20.010;2022-10-16T11:57:59;7.85;;;7.25;;
16804;SDS011;8520;50.102;20.010;2022-10-16T12:00:34;7.95;;;7.45;;
16804;SDS011;8520;50.102;20.010;2022-10-16T12:03:10;9.32;;;8.55;;
16804;SDS011;8520;50.102;20.010;2022-10-16T12:05:50;8.82;;;7.95;;
16804;SDS011;8520;50.102;20.010;2022-10-16T12:08:26;8.35;;;7.63;;
16804;SDS011;8520;50.102;20.010;2022-10-16T12:11:05;8.20;;;7.55;;
16804;SDS011;8520;50.102;20.010;2022-10-16T12:13:35;8.15;;;7.55;;
16804;SDS011;8520;50.102;20.010;2022-10-16T12:16:06;8.10;;;7.43;;
16804;SDS011;8520;50.102;20.010;2022-10-16T12:18:49;8.60;;;7.80;;
16804;SDS011;8520;50.102;20.010;2022-10-16T12:21:17;8.23;;;7.72;;
16804;SDS011;8520;50.102;20.010;2022-10-16T12:23:47;7.32;;;6.88;;
16804;SDS011;8520;50.102;20.010;2022-10-16T12:26:23;7.40;;;6.90;;
16804;SDS011;8520;50.102;20.010;2022-10-16T12:28:52;8.00;;;7.45;;
16804;SDS011;8520;50.102;20.010;2022-10-16T12:31:22;8.00;;;7.35;;
16804;SDS011;8520;50.102;20.010;2022-10-16T12:33:56;8.40;;;7.80;;
16804;SDS011;8520;50.102;20.010;2022-10-16T12:36:27;8.50;;;7.90;;
16804;SDS011;8520;50.102;20.010;2022-10-16T12:38:57;8.18;;;7.57;;
16804;SDS011;8520;50.102;20.010;2022-10-16T12:41:27;8.77;;;7.10;;
16804;SDS011;8520;50.102;20.010;2022-10-16T12:43:56;7.45;;;6.95;;
16804;SDS011;8520;50.102;20.010;2022-10-16T12:46:37;7.78;;;7.15;;
16804;SDS011;8520;50.102;20.010;2022-10-16T12:49:16;8.20;;;7.50;;
16804;SDS011;8520;50.102;20.010;2022-10-16T12:51:51;8.25;;;7.65;;
16804;SDS011;8520;50.102;20.010;2022-10-16T12:54:26;6.53;;;6.10;;
16804;SDS011;8520;50.102;20.010;2022-10-16T12:59:57;6.90;;;6.40;;
16804;SDS011;8520;50.102;20.010;2022-10-16T13:02:44;6.70;;;6.30;;
16804;SDS011;8520;50.102;20.010;2022-10-16T13:05:42;7.50;;;7.00;;
16804;SDS011;8520;50.102;20.010;2022-10-16T13:08:25;6.20;;;5.80;;
16804;SDS011;8520;50.102;20.010;2022-10-16T13:11:07;6.18;;;5.78;;
16804;SDS011;8520;50.102;20.010;2022-10-16T13:13:51;6.43;;;5.93;;
16804;SDS011;8520;50.102;20.010;2022-10-16T13:16:30;6.85;;;6.35;;
16804;SDS011;8520;50.102;20.010;2022-10-16T13:19:14;6.55;;;5.90;;
16804;SDS011;8520;50.102;20.010;2022-10-16T13:21:54;6.47;;;6.07;;
16804;SDS011;8520;50.102;20.010;2022-10-16T13:24:36;6.53;;;6.03;;
16804;SDS011;8520;50.102;20.010;2022-10-16T13:27:15;6.25;;;5.78;;
16804;SDS011;8520;50.102;20.010;2022-10-16T13:29:54;6.03;;;5.70;;
16804;SDS011;8520;50.102;20.010;2022-10-16T13:32:29;7.13;;;6.63;;
16804;SDS011;8520;50.102;20.010;2022-10-16T13:34:59;6.70;;;6.28;;
16804;SDS011;8520;50.102;20.010;2022-10-16T13:37:28;5.90;;;5.50;;
16804;SDS011;8520;50.102;20.010;2022-10-16T13:40:02;6.72;;;6.30;;
16804;SDS011;8520;50.102;20.010;2022-10-16T13:42:45;6.03;;;5.53;;
16804;SDS011;8520;50.102;20.010;2022-10-16T13:45:19;6.32;;;5.93;;
16804;SDS011;8520;50.102;20.010;2022-10-16T13:47:49;5.68;;;5.38;;
16804;SDS011;8520;50.102;20.010;2022-10-16T13:50:19;6.20;;;5.80;;
16804;SDS011;8520;50.102;20.010;2022-10-16T13:52:46;7.35;;;6.85;;
16804;SDS011;8520;50.102;20.010;2022-10-16T13:55:16;5.97;;;5.47;;
16804;SDS011;8520;50.102;20.010;2022-10-16T13:57:45;6.57;;;6.18;;
16804;SDS011;8520;50.102;20.010;2022-10-16T14:00:17;6.15;;;5.75;;
16804;SDS011;8520;50.102;20.010;2022-10-16T14:02:50;6.85;;;5.93;;
16804;SDS011;8520;50.102;20.010;2022-10-16T14:05:24;6.00;;;5.45;;
16804;SDS011;8520;50.102;20.010;2022-10-16T14:07:52;5.72;;;5.25;;
16804;SDS011;8520;50.102;20.010;2022-10-16T14:10:23;5.78;;;5.38;;
16804;SDS011;8520;50.102;20.010;2022-10-16T14:12:57;6.60;;;6.07;;
16804;SDS011;8520;50.102;20.010;2022-10-16T14:15:27;6.47;;;5.88;;
16804;SDS011;8520;50.102;20.010;2022-10-16T14:17:56;6.15;;;5.75;;
16804;SDS011;8520;50.102;20.010;2022-10-16T14:20:28;7.22;;;6.68;;
16804;SDS011;8520;50.102;20.010;2022-10-16T14:22:58;7.28;;;6.68;;
16804;SDS011;8520;50.102;20.010;2022-10-16T14:25:28;5.65;;;5.25;;
16804;SDS011;8520;50.102;20.010;2022-10-16T14:28:02;5.95;;;5.45;;
16804;SDS011;8520;50.102;20.010;2022-10-16T14:30:32;6.03;;;5.53;;
16804;SDS011;8520;50.102;20.010;2022-10-16T14:33:03;6.72;;;5.68;;
16804;SDS011;8520;50.102;20.010;2022-10-16T14:35:35;6.85;;;6.35;;
16804;SDS011;8520;50.102;20.010;2022-10-16T14:38:05;5.75;;;5.38;;
16804;SDS011;8520;50.102;20.010;2022-10-16T14:40:46;6.07;;;5.68;;
16804;SDS011;8520;50.102;20.010;2022-10-16T14:43:17;6.93;;;6.53;;
16804;SDS011;8520;50.102;20.010;2022-10-16T14:45:50;6.13;;;5.47;;
16804;SDS011;8520;50.102;20.010;2022-10-16T14:48:20;5.70;;;5.25;;
16804;SDS011;8520;50.102;20.010;2022-10-16T14:50:50;5.85;;;5.45;;
16804;SDS011;8520;50.102;20.010;2022-10-16T14:53:19;6.47;;;5.97;;
16804;SDS011;8520;50.102;20.010;2022-10-16T14:55:47;6.93;;;6.32;;
16804;SDS011;8520;50.102;20.010;2022-10-16T14:58:16;5.72;;;5.32;;
16804;SDS011;8520;50.102;20.010;2022-10-16T15:00:46;6.07;;;5.57;;
16804;SDS011;8520;50.102;20.010;2022-10-16T15:03:14;6.90;;;6.40;;
16804;SDS011;8520;50.102;20.010;2022-10-16T15:05:43;6.95;;;5.78;;